createdAt,value
2019-03-20T00:02:20.571Z,4.30
2019-03-20T00:04:51.379Z,4.20
2019-03-20T00:07:22.281Z,3.50
2019-03-20T00:09:53.227Z,4.37
2019-03-20T00:12:24.018Z,3.70
2019-03-20T00:14:55.205Z,3.53
2019-03-20T00:17:25.931Z,4.10
2019-03-20T00:19:56.801Z,3.60
2019-03-20T00:22:27.567Z,3.60
2019-03-20T00:24:58.301Z,4.33
2019-03-20T00:27:29.184Z,3.93
2019-03-20T00:30:00.179Z,4.00
2019-03-20T00:32:31.248Z,3.63
2019-03-20T00:35:03.288Z,4.30
2019-03-20T00:37:34.051Z,3.40
2019-03-20T00:40:05.880Z,4.30
2019-03-20T00:42:36.780Z,3.90
2019-03-20T00:45:08.811Z,4.30
2019-03-20T00:47:39.792Z,3.37
2019-03-20T00:50:13.120Z,4.07
2019-03-20T00:52:43.996Z,3.53
2019-03-20T00:55:15.627Z,3.33
2019-03-20T00:57:46.847Z,2.97
2019-03-20T01:00:18.700Z,3.50
2019-03-20T01:02:49.556Z,4.00
2019-03-20T01:05:20.830Z,3.60
2019-03-20T01:07:51.772Z,3.83
2019-03-20T01:10:22.846Z,4.13
2019-03-20T01:12:53.673Z,3.73
2019-03-20T01:15:24.495Z,3.43
2019-03-20T01:17:55.389Z,3.80
2019-03-20T01:20:26.268Z,3.80
2019-03-20T01:22:57.093Z,3.60
2019-03-20T01:25:28.391Z,3.47
2019-03-20T01:28:00.022Z,3.63
2019-03-20T01:30:31.451Z,3.80
2019-03-20T01:33:03.319Z,3.50
2019-03-20T01:35:35.168Z,3.43
2019-03-20T01:38:07.374Z,3.53
2019-03-20T01:40:40.287Z,4.13
2019-03-20T01:43:11.282Z,4.00
2019-03-20T01:45:42.270Z,2.90
2019-03-20T01:48:13.218Z,3.87
2019-03-20T01:50:44.041Z,3.87
2019-03-20T01:53:15.014Z,3.60
2019-03-20T01:55:45.744Z,3.73
2019-03-20T01:58:16.888Z,3.33
2019-03-20T02:00:47.622Z,4.33
2019-03-20T02:03:18.392Z,4.33
2019-03-20T02:05:49.353Z,4.43
2019-03-20T02:08:20.247Z,4.43
2019-03-20T02:10:51.043Z,3.80
2019-03-20T02:13:21.924Z,3.97
2019-03-20T02:15:52.711Z,4.40
2019-03-20T02:18:23.515Z,3.30
2019-03-20T02:20:54.316Z,4.33
2019-03-20T02:23:25.759Z,3.60
2019-03-20T02:25:56.466Z,4.10
2019-03-20T02:28:27.350Z,4.10
2019-03-20T02:30:58.165Z,4.93
2019-03-20T02:33:28.847Z,4.20
2019-03-20T02:35:59.637Z,5.30
2019-03-20T02:38:30.473Z,4.57
2019-03-20T02:41:01.176Z,3.70
2019-03-20T02:43:31.947Z,4.30
2019-03-20T02:46:02.871Z,3.60
2019-03-20T02:48:33.629Z,3.40
2019-03-20T02:51:04.520Z,3.50
2019-03-20T02:53:35.519Z,4.30
2019-03-20T02:56:06.451Z,4.80
2019-03-20T02:58:37.061Z,4.23
2019-03-20T03:01:08.027Z,3.60
2019-03-20T03:03:40.039Z,3.90
2019-03-20T03:06:10.927Z,4.30
2019-03-20T03:08:42.085Z,3.77
2019-03-20T03:11:12.888Z,4.10
2019-03-20T03:13:44.068Z,3.97
2019-03-20T03:16:14.882Z,3.80
2019-03-20T03:18:45.882Z,3.97
2019-03-20T03:21:16.647Z,3.97
2019-03-20T03:23:47.526Z,3.40
2019-03-20T03:26:18.327Z,3.30
2019-03-20T03:28:49.261Z,3.97
2019-03-20T03:31:20.094Z,3.90
2019-03-20T03:33:50.990Z,3.20
2019-03-20T03:36:22.085Z,3.77
2019-03-20T03:38:52.947Z,3.23
2019-03-20T03:41:23.846Z,3.80
2019-03-20T03:43:55.767Z,3.47
2019-03-20T03:46:26.456Z,3.73
2019-03-20T03:48:57.417Z,4.10
2019-03-20T03:51:28.311Z,3.40
2019-03-20T03:53:59.320Z,3.27
2019-03-20T03:56:30.417Z,3.73
2019-03-20T03:59:01.490Z,3.70
2019-03-20T04:01:32.383Z,3.67
2019-03-20T04:04:03.394Z,4.03
2019-03-20T04:06:35.930Z,3.20
2019-03-20T04:09:08.333Z,4.00
2019-03-20T04:11:39.205Z,3.40
2019-03-20T04:14:10.080Z,3.90
2019-03-20T04:16:41.106Z,3.57
2019-03-20T04:19:12.022Z,3.27
2019-03-20T04:21:43.021Z,3.20
2019-03-20T04:24:13.759Z,3.40
2019-03-20T04:26:44.674Z,3.90
2019-03-20T04:29:15.568Z,2.90
2019-03-20T04:31:46.559Z,4.60
2019-03-20T04:34:17.461Z,3.40
2019-03-20T04:36:48.433Z,3.50
2019-03-20T04:39:19.377Z,3.50
2019-03-20T04:41:50.174Z,3.20
2019-03-20T04:44:21.075Z,3.47
2019-03-20T04:46:51.951Z,4.73
2019-03-20T04:49:23.191Z,6.47
2019-03-20T04:51:54.024Z,6.13
2019-03-20T04:54:24.939Z,5.93
2019-03-20T04:56:55.810Z,4.10
2019-03-20T04:59:27.011Z,3.50
2019-03-20T05:01:57.878Z,3.70
2019-03-20T05:04:28.761Z,4.93
2019-03-20T05:07:02.097Z,4.30
2019-03-20T05:09:32.992Z,3.43
2019-03-20T05:12:04.940Z,4.00
2019-03-20T05:14:36.006Z,4.07
2019-03-20T05:17:06.889Z,4.07
2019-03-20T05:19:37.883Z,4.40
2019-03-20T05:22:08.758Z,4.83
2019-03-20T05:24:40.561Z,3.77
2019-03-20T05:27:11.454Z,3.60
2019-03-20T05:29:42.378Z,4.37
2019-03-20T05:32:13.251Z,3.20
2019-03-20T05:34:44.188Z,4.60
2019-03-20T05:37:15.045Z,3.57
2019-03-20T05:39:45.954Z,4.87
2019-03-20T05:42:16.903Z,4.30
2019-03-20T05:44:47.679Z,3.70
2019-03-20T05:47:18.462Z,4.90
2019-03-20T05:49:49.355Z,3.70
2019-03-20T05:52:20.130Z,3.87
2019-03-20T05:54:51.073Z,4.80
2019-03-20T05:57:21.922Z,5.13
2019-03-20T05:59:52.930Z,4.47
2019-03-20T06:02:25.733Z,4.17
2019-03-20T06:04:56.466Z,4.40
2019-03-20T06:07:27.463Z,3.93
2019-03-20T06:09:58.342Z,4.10
2019-03-20T06:12:29.232Z,4.50
2019-03-20T06:15:00.018Z,5.33
2019-03-20T06:17:30.892Z,4.13
2019-03-20T06:20:01.698Z,4.70
2019-03-20T06:22:32.755Z,4.57
2019-03-20T06:25:03.690Z,4.40
2019-03-20T06:27:34.557Z,3.80
2019-03-20T06:30:06.058Z,4.33
2019-03-20T06:32:36.964Z,3.87
2019-03-20T06:35:08.050Z,4.40
2019-03-20T06:37:38.875Z,3.93
2019-03-20T06:40:10.263Z,3.80
2019-03-20T06:42:41.174Z,4.10
2019-03-20T06:45:13.491Z,4.90
2019-03-20T06:47:44.280Z,3.97
2019-03-20T06:50:15.922Z,5.00
2019-03-20T06:52:46.662Z,3.50
2019-03-20T06:55:17.655Z,4.13
2019-03-20T06:57:49.660Z,4.47
2019-03-20T07:00:46.185Z,3.57
2019-03-20T07:03:47.345Z,3.57
2019-03-20T07:06:54.533Z,3.60
2019-03-20T07:09:32.498Z,3.60
2019-03-20T07:12:03.279Z,5.17
2019-03-20T07:14:34.147Z,3.50
2019-03-20T07:17:05.057Z,3.30
2019-03-20T07:19:36.010Z,3.50
2019-03-20T07:22:06.937Z,4.10
2019-03-20T07:24:37.873Z,3.60
2019-03-20T07:27:08.699Z,4.67
2019-03-20T07:29:39.874Z,4.67
2019-03-20T07:32:10.678Z,4.40
2019-03-20T07:34:41.584Z,3.83
2019-03-20T07:37:12.672Z,3.80
2019-03-20T07:39:43.950Z,5.07
2019-03-20T07:42:17.524Z,4.13
2019-03-20T07:44:48.384Z,4.10
2019-03-20T07:47:19.309Z,2.90
2019-03-20T07:49:50.231Z,3.87
2019-03-20T07:52:21.117Z,3.83
2019-03-20T07:54:51.898Z,4.33
2019-03-20T07:57:22.868Z,4.40
2019-03-20T07:59:53.765Z,4.40
2019-03-20T08:02:24.771Z,5.30
2019-03-20T08:04:55.551Z,5.07
2019-03-20T08:07:26.669Z,5.03
2019-03-20T08:09:57.421Z,7.13
2019-03-20T08:12:28.298Z,6.70
2019-03-20T08:14:59.095Z,6.00
2019-03-20T08:17:29.982Z,6.63
2019-03-20T08:20:00.863Z,5.97
2019-03-20T08:22:31.679Z,7.10
2019-03-20T08:25:02.543Z,7.90
2019-03-20T08:27:33.831Z,7.07
2019-03-20T08:30:05.043Z,4.77
2019-03-20T08:32:36.107Z,4.20
2019-03-20T08:35:07.751Z,4.03
2019-03-20T08:37:39.301Z,4.83
2019-03-20T08:40:11.246Z,5.17
2019-03-20T08:42:42.241Z,5.43
2019-03-20T08:45:13.550Z,4.83
2019-03-20T08:47:44.703Z,5.57
2019-03-20T08:50:17.988Z,6.27
2019-03-20T08:52:48.868Z,5.60
2019-03-20T08:55:19.740Z,5.90
2019-03-20T08:57:50.723Z,4.30
2019-03-20T09:00:21.844Z,4.70
2019-03-20T09:02:53.126Z,5.17
2019-03-20T09:05:24.037Z,6.00
2019-03-20T09:07:55.000Z,5.70
2019-03-20T09:10:27.015Z,5.50
2019-03-20T09:12:59.098Z,5.90
2019-03-20T09:15:29.998Z,4.70
2019-03-20T09:18:01.093Z,4.90
2019-03-20T09:20:31.910Z,4.80
2019-03-20T09:23:02.988Z,4.77
2019-03-20T09:25:33.891Z,5.60
2019-03-20T09:28:04.878Z,5.37
2019-03-20T09:30:35.653Z,4.90
2019-03-20T09:33:06.742Z,5.10
2019-03-20T09:35:38.653Z,4.50
2019-03-20T09:38:09.525Z,4.50
2019-03-20T09:40:40.232Z,4.17
2019-03-20T09:43:11.106Z,5.60
2019-03-20T09:45:42.004Z,6.07
2019-03-20T09:48:12.963Z,5.03
2019-03-20T09:50:43.775Z,5.67
2019-03-20T09:53:15.075Z,5.10
2019-03-20T09:55:45.855Z,5.17
2019-03-20T09:58:16.754Z,5.80
2019-03-20T10:00:47.835Z,5.77
2019-03-20T10:03:19.034Z,4.40
2019-03-20T10:05:49.830Z,5.30
2019-03-20T10:08:20.809Z,5.47
2019-03-20T10:10:51.406Z,5.03
2019-03-20T10:13:22.283Z,4.57
2019-03-20T10:15:53.156Z,5.20
2019-03-20T10:18:24.130Z,5.70
2019-03-20T10:20:55.139Z,5.70
2019-03-20T10:23:26.194Z,5.33
2019-03-20T10:25:57.135Z,5.60
2019-03-20T10:28:28.004Z,5.23
2019-03-20T10:30:58.787Z,5.50
2019-03-20T10:33:29.676Z,5.07
2019-03-20T10:36:00.464Z,4.87
2019-03-20T10:38:31.505Z,5.90
2019-03-20T10:41:02.587Z,5.13
2019-03-20T10:43:33.298Z,5.77
2019-03-20T10:46:04.210Z,4.80
2019-03-20T10:48:35.110Z,5.53
2019-03-20T10:51:05.904Z,4.93
2019-03-20T10:53:36.631Z,4.17
2019-03-20T10:56:07.709Z,4.10
2019-03-20T10:58:38.515Z,3.60
2019-03-20T11:01:09.438Z,3.33
2019-03-20T11:03:40.527Z,4.47
2019-03-20T11:06:11.331Z,3.57
2019-03-20T11:08:42.296Z,4.20
2019-03-20T11:11:14.032Z,4.33
2019-03-20T11:13:44.906Z,4.80
2019-03-20T11:16:15.802Z,3.40
2019-03-20T11:18:48.474Z,3.90
2019-03-20T11:21:19.586Z,3.10
2019-03-20T11:23:50.412Z,2.90
2019-03-20T11:26:21.186Z,3.93
2019-03-20T11:28:52.229Z,3.70
2019-03-20T11:31:23.063Z,3.70
2019-03-20T11:33:54.059Z,3.30
2019-03-20T11:36:24.850Z,3.53
2019-03-20T11:38:55.846Z,3.23
2019-03-20T11:41:26.617Z,2.60
2019-03-20T11:43:57.505Z,2.90
2019-03-20T11:46:28.387Z,3.60
2019-03-20T11:48:59.372Z,4.00
2019-03-20T11:51:30.176Z,3.60
2019-03-20T11:54:01.197Z,3.93
2019-03-20T11:56:32.055Z,4.20
2019-03-20T11:59:03.031Z,3.40
2019-03-20T12:01:33.912Z,3.20
2019-03-20T12:04:05.095Z,3.37
2019-03-20T12:06:36.115Z,3.67
2019-03-20T12:09:09.668Z,3.60
2019-03-20T12:11:45.872Z,3.37
2019-03-20T12:14:13.780Z,3.27
2019-03-20T12:16:44.579Z,3.23
2019-03-20T12:19:15.568Z,3.60
2019-03-20T12:21:46.352Z,3.40
2019-03-20T12:24:19.547Z,4.70
2019-03-20T12:26:50.623Z,4.10
2019-03-20T12:29:21.524Z,4.20
2019-03-20T12:31:52.795Z,4.20
2019-03-20T12:34:23.588Z,3.30
2019-03-20T12:36:56.549Z,3.17
2019-03-20T12:39:27.123Z,3.10
2019-03-20T12:41:58.166Z,2.20
2019-03-20T12:44:29.131Z,3.20
2019-03-20T12:47:00.042Z,2.40
2019-03-20T12:49:32.053Z,3.97
2019-03-20T12:52:02.839Z,3.03
2019-03-20T12:54:33.727Z,3.40
2019-03-20T12:57:04.715Z,3.20
2019-03-20T12:59:35.602Z,3.33
2019-03-20T13:02:08.211Z,2.90
2019-03-20T13:04:38.900Z,3.00
2019-03-20T13:07:09.854Z,2.97
2019-03-20T13:09:40.646Z,3.37
2019-03-20T13:12:11.679Z,3.17
2019-03-20T13:14:42.564Z,2.70
2019-03-20T13:17:13.450Z,2.97
2019-03-20T13:19:44.342Z,3.37
2019-03-20T13:22:15.114Z,3.17
2019-03-20T13:24:46.020Z,3.07
2019-03-20T13:27:16.906Z,1.90
2019-03-20T13:29:47.793Z,3.10
2019-03-20T13:32:18.740Z,2.90
2019-03-20T13:34:49.638Z,2.73
2019-03-20T13:37:20.502Z,3.50
2019-03-20T13:39:51.287Z,2.70
2019-03-20T13:42:22.227Z,3.70
2019-03-20T13:44:53.121Z,2.53
2019-03-20T13:47:23.888Z,2.90
2019-03-20T13:49:54.818Z,4.10
2019-03-20T13:52:25.805Z,3.80
2019-03-20T13:54:56.619Z,2.47
2019-03-20T13:57:27.451Z,2.43
2019-03-20T13:59:58.373Z,3.00
2019-03-20T14:02:29.307Z,3.10
2019-03-20T14:05:00.300Z,3.00
2019-03-20T14:07:31.371Z,3.20
2019-03-20T14:10:02.247Z,3.00
2019-03-20T14:12:34.095Z,3.10
2019-03-20T14:15:05.404Z,2.90
2019-03-20T14:17:36.290Z,3.20
2019-03-20T14:20:08.755Z,3.80
2019-03-20T14:22:39.650Z,2.80
2019-03-20T14:25:10.692Z,2.97
2019-03-20T14:27:41.583Z,2.40
2019-03-20T14:30:15.647Z,2.80
2019-03-20T14:32:46.438Z,3.60
2019-03-20T14:35:17.250Z,2.53
2019-03-20T14:37:48.143Z,2.70
2019-03-20T14:40:22.002Z,2.70
2019-03-20T14:42:53.004Z,3.57
2019-03-20T14:45:25.955Z,2.90
2019-03-20T14:47:56.955Z,2.90
2019-03-20T14:50:27.970Z,2.50
2019-03-20T14:52:58.843Z,2.33
2019-03-20T14:55:29.930Z,2.80
2019-03-20T14:58:00.820Z,2.70
2019-03-20T15:00:32.002Z,2.43
2019-03-20T15:03:02.914Z,3.90
2019-03-20T15:05:34.152Z,2.20
2019-03-20T15:08:04.992Z,3.67
2019-03-20T15:10:45.483Z,3.80
2019-03-20T15:13:08.805Z,2.30
2019-03-20T15:15:49.130Z,3.60
2019-03-20T15:18:19.912Z,3.10
2019-03-20T15:20:50.716Z,2.83
2019-03-20T15:23:21.675Z,3.10
2019-03-20T15:25:52.628Z,3.20
2019-03-20T15:28:23.576Z,2.93
2019-03-20T15:30:54.554Z,3.10
2019-03-20T15:33:25.607Z,2.37
2019-03-20T15:35:56.515Z,3.53
2019-03-20T15:38:27.410Z,2.33
2019-03-20T15:40:58.307Z,3.30
2019-03-20T15:43:29.199Z,2.57
2019-03-20T15:46:00.150Z,2.20
2019-03-20T15:48:31.101Z,3.10
2019-03-20T15:51:01.807Z,2.73
2019-03-20T15:53:33.966Z,2.60
2019-03-20T15:56:05.072Z,2.47
2019-03-20T15:58:35.851Z,3.03
2019-03-20T16:01:06.793Z,2.60
2019-03-20T16:03:38.084Z,2.80
2019-03-20T16:06:08.957Z,2.50
2019-03-20T16:08:39.903Z,2.97
2019-03-20T16:11:10.855Z,3.07
2019-03-20T16:13:41.744Z,8.13
2019-03-20T16:16:12.411Z,2.70
2019-03-20T16:18:43.385Z,2.00
2019-03-20T16:21:14.302Z,2.00
2019-03-20T16:23:45.192Z,2.23
2019-03-20T16:26:16.083Z,2.60
2019-03-20T16:28:47.163Z,4.20
2019-03-20T16:31:18.453Z,3.10
2019-03-20T16:33:49.415Z,3.63
2019-03-20T16:36:20.343Z,3.50
2019-03-20T16:38:51.223Z,3.57
2019-03-20T16:41:22.245Z,2.93
2019-03-20T16:43:53.169Z,2.63
2019-03-20T16:46:24.094Z,3.00
2019-03-20T16:48:54.977Z,2.80
2019-03-20T16:51:25.767Z,2.80
2019-03-20T16:54:04.763Z,1.80
2019-03-20T16:56:35.725Z,2.77
2019-03-20T16:59:06.719Z,1.93
2019-03-20T17:01:37.854Z,2.43
2019-03-20T17:04:08.640Z,2.83
2019-03-20T17:06:39.534Z,4.90
2019-03-20T17:09:10.517Z,2.63
2019-03-20T17:11:41.413Z,3.60
2019-03-20T17:14:12.556Z,3.73
2019-03-20T17:16:43.447Z,3.53
2019-03-20T17:19:14.312Z,2.87
2019-03-20T17:21:45.169Z,3.03
2019-03-20T17:24:15.943Z,3.87
2019-03-20T17:26:46.990Z,3.47
2019-03-20T17:29:17.820Z,2.90
2019-03-20T17:31:48.801Z,4.13
2019-03-20T17:34:19.598Z,5.33
2019-03-20T17:36:50.511Z,3.83
2019-03-20T17:39:21.286Z,4.20
2019-03-20T17:41:52.175Z,2.70
2019-03-20T17:44:22.948Z,2.77
2019-03-20T17:46:53.675Z,2.50
2019-03-20T17:49:24.699Z,2.90
2019-03-20T17:51:55.566Z,2.23
2019-03-20T17:54:26.409Z,2.70
2019-03-20T17:56:57.284Z,2.63
2019-03-20T17:59:28.079Z,3.47
2019-03-20T18:01:59.070Z,3.53
2019-03-20T18:04:30.976Z,3.50
2019-03-20T18:07:02.009Z,3.60
2019-03-20T18:09:33.054Z,3.50
2019-03-20T18:12:04.134Z,3.30
2019-03-20T18:14:36.929Z,3.17
2019-03-20T18:17:07.770Z,2.50
2019-03-20T18:19:38.655Z,3.27
2019-03-20T18:22:09.738Z,3.00
2019-03-20T18:24:40.624Z,2.63
2019-03-20T18:27:11.768Z,3.37
2019-03-20T18:29:43.387Z,3.30
2019-03-20T18:32:14.311Z,2.93
2019-03-20T18:34:46.214Z,3.10
2019-03-20T18:37:17.107Z,3.10
2019-03-20T18:39:49.047Z,2.93
2019-03-20T18:42:19.900Z,2.97
2019-03-20T18:44:50.801Z,2.70
2019-03-20T18:47:21.786Z,3.10
2019-03-20T18:49:52.569Z,2.83
2019-03-20T18:52:23.510Z,2.23
2019-03-20T18:54:54.339Z,3.20
2019-03-20T18:57:25.286Z,6.10
2019-03-20T18:59:58.236Z,4.60
2019-03-20T19:02:30.167Z,2.50
2019-03-20T19:05:01.088Z,2.97
2019-03-20T19:07:32.575Z,3.57
2019-03-20T19:10:03.767Z,2.93
2019-03-20T19:12:34.967Z,3.70
2019-03-20T19:15:06.655Z,2.20
2019-03-20T19:17:37.498Z,3.30
2019-03-20T19:20:08.608Z,2.87
2019-03-20T19:22:39.499Z,3.13
2019-03-20T19:25:11.283Z,3.50
2019-03-20T19:27:43.505Z,3.30
2019-03-20T19:30:17.272Z,3.20
2019-03-20T19:32:48.164Z,3.13
2019-03-20T19:35:19.075Z,3.33
2019-03-20T19:37:50.038Z,2.87
2019-03-20T19:40:21.204Z,3.47
2019-03-20T19:42:52.125Z,3.30
2019-03-20T19:45:23.009Z,3.63
2019-03-20T19:47:54.038Z,3.60
2019-03-20T19:50:25.056Z,2.63
2019-03-20T19:52:56.023Z,3.27
2019-03-20T19:55:26.974Z,3.67
2019-03-20T19:57:59.122Z,3.40
2019-03-20T20:00:30.035Z,2.03
2019-03-20T20:03:00.917Z,3.13
2019-03-20T20:05:31.818Z,3.00
2019-03-20T20:08:02.790Z,3.63
2019-03-20T20:10:33.365Z,3.90
2019-03-20T20:13:04.591Z,3.90
2019-03-20T20:15:35.457Z,3.73
2019-03-20T20:18:06.425Z,3.57
2019-03-20T20:20:37.314Z,3.10
2019-03-20T20:23:08.407Z,3.67
2019-03-20T20:25:39.197Z,2.87
2019-03-20T20:28:11.648Z,3.43
2019-03-20T20:30:42.665Z,3.43
2019-03-20T20:33:13.447Z,3.20
2019-03-20T20:35:44.385Z,3.30
2019-03-20T20:38:15.571Z,3.80
2019-03-20T20:40:46.379Z,4.10
2019-03-20T20:43:18.237Z,3.73
2019-03-20T20:45:49.400Z,3.67
2019-03-20T20:48:20.213Z,4.10
2019-03-20T20:50:51.362Z,4.60
2019-03-20T20:53:22.442Z,4.27
2019-03-20T20:55:53.238Z,4.70
2019-03-20T20:58:24.073Z,3.60
2019-03-20T21:00:55.771Z,3.70
2019-03-20T21:03:26.571Z,3.97
2019-03-20T21:05:57.842Z,4.47
2019-03-20T21:08:28.750Z,4.00
2019-03-20T21:10:59.634Z,3.80
2019-03-20T21:13:30.434Z,3.87
2019-03-20T21:16:02.903Z,3.40
2019-03-20T21:19:17.452Z,2.70
2019-03-20T21:22:29.347Z,3.97
2019-03-20T21:25:00.603Z,2.83
2019-03-20T21:28:21.401Z,3.80
2019-03-20T21:31:28.999Z,3.07
2019-03-20T21:34:31.904Z,3.30
2019-03-20T21:37:46.460Z,4.10
2019-03-20T21:40:19.130Z,3.83
2019-03-20T21:43:25.702Z,3.90
2019-03-20T21:46:43.031Z,3.97
2019-03-20T21:49:14.598Z,4.30
2019-03-20T21:51:46.053Z,3.30
2019-03-20T21:54:57.622Z,3.63
2019-03-20T21:58:04.433Z,3.70
2019-03-20T22:01:11.301Z,4.03
2019-03-20T22:03:43.823Z,4.33
2019-03-20T22:07:08.560Z,4.60
2019-03-20T22:10:34.384Z,4.47
2019-03-20T22:13:21.312Z,3.70
2019-03-20T22:16:27.581Z,4.60
2019-03-20T22:19:51.854Z,4.67
2019-03-20T22:23:00.082Z,4.60
2019-03-20T22:26:06.337Z,5.53
2019-03-20T22:29:07.900Z,4.10
2019-03-20T22:31:43.239Z,4.20
2019-03-20T22:34:57.692Z,4.73
2019-03-20T22:37:28.990Z,3.87
2019-03-20T22:40:49.231Z,3.90
2019-03-20T22:43:34.459Z,3.40
2019-03-20T22:46:51.117Z,3.50
2019-03-20T22:50:03.732Z,3.50
2019-03-20T22:52:57.080Z,3.70
2019-03-20T22:55:48.323Z,3.43
2019-03-20T22:58:45.027Z,4.03
2019-03-20T23:01:26.147Z,5.07
2019-03-20T23:04:04.859Z,4.70
2019-03-20T23:06:36.249Z,4.00
2019-03-20T23:09:09.151Z,4.17
2019-03-20T23:11:40.856Z,4.20
2019-03-20T23:14:13.230Z,3.73
2019-03-20T23:16:45.546Z,4.60
2019-03-20T23:19:17.114Z,5.20
2019-03-20T23:21:48.501Z,5.00
2019-03-20T23:24:19.940Z,3.53
2019-03-20T23:26:51.294Z,3.30
2019-03-20T23:29:22.682Z,3.07
2019-03-20T23:31:53.985Z,3.60
2019-03-20T23:34:25.378Z,3.63
2019-03-20T23:36:56.698Z,3.70
2019-03-20T23:39:28.173Z,4.67
2019-03-20T23:41:59.595Z,3.80
2019-03-20T23:44:30.881Z,6.10
2019-03-20T23:47:03.420Z,4.10
2019-03-20T23:49:35.728Z,3.57
2019-03-20T23:52:07.078Z,4.63
2019-03-20T23:54:49.949Z,4.20
2019-03-20T23:57:21.476Z,4.30
2019-03-20T23:59:53.319Z,4.80
